Map

Track Data

SID SEASON NUMBER BASIN SUBBASIN NAME ISO_TIME NATURE LAT LON WMO_WIND WMO_PRES WMO_AGENCY TRACK_TYPE DIST2LAND LANDFALL IFLAG USA_AGENCY USA_ATCF_ID USA_LAT USA_LON USA_RECORD USA_STATUS USA_WIND USA_PRES USA_SSHS USA_R34_NE USA_R34_SE USA_R34_SW USA_R34_NW USA_R50_NE USA_R50_SE USA_R50_SW USA_R50_NW USA_R64_NE USA_R64_SE USA_R64_SW USA_R64_NW USA_POCI USA_ROCI USA_RMW USA_EYE TOKYO_LAT TOKYO_LON TOKYO_GRADE TOKYO_WIND TOKYO_PRES TOKYO_R50_DIR TOKYO_R50_LONG TOKYO_R50_SHORT TOKYO_R30_DIR TOKYO_R30_LONG TOKYO_R30_SHORT TOKYO_LAND CMA_LAT CMA_LON CMA_CAT CMA_WIND CMA_PRES HKO_LAT HKO_LON HKO_CAT HKO_WIND HKO_PRES NEWDELHI_LAT NEWDELHI_LON NEWDELHI_GRADE NEWDELHI_WIND NEWDELHI_PRES NEWDELHI_CI NEWDELHI_DP NEWDELHI_POCI REUNION_LAT REUNION_LON REUNION_TYPE REUNION_WIND REUNION_PRES REUNION_TNUM REUNION_CI REUNION_RMW REUNION_R34_NE REUNION_R34_SE REUNION_R34_SW REUNION_R34_NW REUNION_R50_NE REUNION_R50_SE REUNION_R50_SW REUNION_R50_NW REUNION_R64_NE REUNION_R64_SE REUNION_R64_SW REUNION_R64_NW BOM_LAT BOM_LON BOM_TYPE BOM_WIND BOM_PRES BOM_TNUM BOM_CI BOM_RMW BOM_R34_NE BOM_R34_SE BOM_R34_SW BOM_R34_NW BOM_R50_NE BOM_R50_SE BOM_R50_SW BOM_R50_NW BOM_R64_NE BOM_R64_SE BOM_R64_SW BOM_R64_NW BOM_ROCI BOM_POCI BOM_EYE BOM_POS_METHOD BOM_PRES_METHOD NADI_LAT NADI_LON NADI_CAT NADI_WIND NADI_PRES WELLINGTON_LAT WELLINGTON_LON WELLINGTON_WIND WELLINGTON_PRES DS824_LAT DS824_LON DS824_STAGE DS824_WIND DS824_PRES TD9636_LAT TD9636_LON TD9636_STAGE TD9636_WIND TD9636_PRES TD9635_LAT TD9635_LON TD9635_WIND TD9635_PRES TD9635_ROCI NEUMANN_LAT NEUMANN_LON NEUMANN_CLASS NEUMANN_WIND NEUMANN_PRES MLC_LAT MLC_LON MLC_CLASS MLC_WIND MLC_PRES USA_GUST BOM_GUST BOM_GUST_PER REUNION_GUST REUNION_GUST_PER USA_SEAHGT USA_SEARAD_NE USA_SEARAD_SE USA_SEARAD_SW USA_SEARAD_NW STORM_SPEED STORM_DIR
1894284N11303 1894 48 NA NA NOT_NAMED 1894-10-11 00:00:00 TS 11.1000 -57.0333 35 hurdat_atl main 410 404 O____________O hurdat_atl AL061894 10.8000 -57.7000 TS 35 0 11.7000 -55.7000 TD 30 7 301
1894284N11303 1894 48 NA NA NOT_NAMED 1894-10-11 03:00:00 TS 11.2809 -57.3425 main 409 379 P____________P AL061894 11.0275 -57.9900 TS 40 0 11.7876 -56.0475 TD 37 7 303
1894284N11303 1894 48 NA NA NOT_NAMED 1894-10-11 06:00:00 TS 11.5000 -57.6667 45 hurdat_atl main 371 346 O____________O hurdat_atl AL061894 11.3000 -58.3000 TS 45 0 11.9000 -56.4000 TS 45 8 307
1894284N11303 1894 48 NA NA NOT_NAMED 1894-10-11 09:00:00 TS 11.7783 -58.0141 main 349 328 P____________P AL061894 11.6425 -58.6425 TS 50 0 12.0500 -56.7575 TS 50 9 310
1894284N11303 1894 48 NA NA NOT_NAMED 1894-10-11 12:00:00 TS 12.0667 -58.3667 55 hurdat_atl main 324 308 O____________O hurdat_atl AL061894 12.0000 -59.0000 TS 55 0 12.2000 -57.1000 TS 55 9 308
1894284N11303 1894 48 NA NA NOT_NAMED 1894-10-11 15:00:00 TS 12.3050 -58.7076 main 308 296 P____________P AL061894 12.3075 -59.3576 TS 60 0 12.2999 -57.4076 TS 55 8 306
1894284N11303 1894 48 NA NA NOT_NAMED 1894-10-11 18:00:00 TS 12.5333 -59.0333 65 hurdat_atl main 296 289 O____________O hurdat_atl AL061894 12.6000 -59.7000 HU 65 1 12.4000 -57.7000 TS 55 8 308
1894284N11303 1894 48 NA CS NOT_NAMED 1894-10-11 21:00:00 TS 12.7833 -59.3384 main 299 292 P____________P AL061894 12.8999 -60.0076 HU 70 1 12.5500 -58.0000 TS 57 8 310
1894284N11303 1894 48 NA CS NOT_NAMED 1894-10-12 00:00:00 TS 13.0333 -59.6333 75 hurdat_atl main 299 298 O____________O hurdat_atl AL061894 13.2000 -60.3000 HU 75 1 12.7000 -58.3000 TS 60 8 310
1894284N11303 1894 48 NA CS NOT_NAMED 1894-10-12 03:00:00 TS 13.2616 -59.9334 main 314 310 P____________P AL061894 13.4925 -60.6001 HU 80 1 12.8000 -58.6001 TS 60 8 309
1894284N11303 1894 48 NA CS NOT_NAMED 1894-10-12 06:00:00 TS 13.5000 -60.2333 85 hurdat_atl main 325 322 O____________O hurdat_atl AL061894 13.8000 -60.9000 HU 85 2 12.9000 -58.9000 TS 60 8 312
1894284N11303 1894 48 NA CS NOT_NAMED 1894-10-12 09:00:00 TS 13.7933 -60.5333 main 351 349 P____________P AL061894 14.1650 -61.2000 HU 85 2 13.0500 -59.2000 TS 62 8 314
1894284N11303 1894 48 NA CS NOT_NAMED 1894-10-12 12:00:00 TS 14.0667 -60.8333 85 hurdat_atl main 381 380 O____________O hurdat_atl AL061894 14.5000 -61.5000 HU 85 2 13.2000 -59.5000 HU 65 7 308
1894284N11303 1894 48 NA CS NOT_NAMED 1894-10-12 15:00:00 TS 14.2433 -61.1285 main 391 391 P____________P AL061894 14.7149 -61.7927 HU 85 2 13.3000 -59.8001 HU 65 7 300
1894284N11303 1894 48 NA CS NOT_NAMED 1894-10-12 18:00:00 TS 14.4000 -61.4333 85 hurdat_atl main 414 414 O____________O hurdat_atl AL061894 14.9000 -62.1000 HU 85 2 13.4000 -60.1000 HU 65 7 301
1894284N11303 1894 48 NA CS NOT_NAMED 1894-10-12 21:00:00 TS 14.6092 -61.7667 main 436 436 P____________P AL061894 15.1425 -62.4500 HU 85 2 13.5425 -60.4000 HU 65 8 304
1894284N11303 1894 48 NA CS NOT_NAMED 1894-10-13 00:00:00 TS 14.8333 -62.1000 85 hurdat_atl main 459 459 O____________O hurdat_atl AL061894 15.4000 -62.8000 HU 85 2 13.7000 -60.7000 HU 65 7 304
1894284N11303 1894 48 NA CS NOT_NAMED 1894-10-13 03:00:00 TS 15.0174 -62.4052 main 481 455 P____________P AL061894 15.6274 -63.1077 HU 85 2 13.7975 -61.0003 HU 65 7 307
1894284N11303 1894 48 NA CS NOT_NAMED 1894-10-13 06:00:00 TS 15.2667 -62.7000 85 hurdat_atl main 447 401 O____________O hurdat_atl AL061894 15.9000 -63.4000 HU 85 2 14.0000 -61.3000 HU 65 9 319
1894284N11303 1894 48 NA CS NOT_NAMED 1894-10-13 09:00:00 TS 15.6675 -63.0000 main 393 339 P____________P AL061894 16.2775 -63.7075 HU 85 2 14.4474 -61.5851 HU 65 10 326
1894284N11303 1894 48 NA CS NOT_NAMED 1894-10-13 12:00:00 TS 16.1333 -63.3000 85 hurdat_atl main 339 277 O____________O hurdat_atl AL061894 16.7000 -64.0000 HU 85 2 15.0000 -61.9000 HU 65 11 327
1894284N11303 1894 48 NA CS NOT_NAMED 1894-10-13 15:00:00 TS 16.5767 -63.6075 main 277 224 P____________P AL061894 17.1150 -64.2650 HU 85 2 15.5000 -62.2925 HU 62 10 326
1894284N11303 1894 48 NA CS NOT_NAMED 1894-10-13 18:00:00 TS 17.0000 -63.9000 85 hurdat_atl main 224 182 O____________O hurdat_atl AL061894 17.5000 -64.5000 HU 85 2 16.0000 -62.7000 TS 60 10 327
1894284N11303 1894 48 NA CS NOT_NAMED 1894-10-13 21:00:00 TS 17.3766 -64.1602 main 173 138 P____________P AL061894 17.8150 -64.7151 HU 85 2 16.4999 -63.0503 TS 55 9 327
1894284N11303 1894 48 NA CS NOT_NAMED 1894-10-14 00:00:00 TS 17.7333 -64.4000 85 hurdat_atl main 138 106 O____________O hurdat_atl AL061894 18.1000 -64.9000 HU 85 2 17.0000 -63.4000 TS 50 9 328
1894284N11303 1894 48 NA CS NOT_NAMED 1894-10-14 03:00:00 TS 18.1000 -64.6359 main 106 73 P____________P AL061894 18.4000 -65.0576 HU 85 2 17.5000 -63.7927 TS 47 9 329
1894284N11303 1894 48 NA CS NOT_NAMED 1894-10-14 06:00:00 TS 18.4667 -64.8667 85 hurdat_atl main 74 62 O____________O hurdat_atl AL061894 18.7000 -65.2000 HU 85 2 18.0000 -64.2000 TS 45 9 328
1894284N11303 1894 48 NA CS NOT_NAMED 1894-10-14 09:00:00 TS 18.8233 -65.1100 main 69 69 P____________P AL061894 18.9775 -65.3501 HU 85 2 18.5151 -64.6299 TS 45 9 329
1894284N11303 1894 48 NA NA NOT_NAMED 1894-10-14 12:00:00 TS 19.2000 -65.3333 85 hurdat_atl main 94 91 O____________O hurdat_atl AL061894 19.3000 -65.5000 HU 85 2 19.0000 -65.0000 TS 45 9 335
1894284N11303 1894 48 NA NA NOT_NAMED 1894-10-14 15:00:00 TS 19.6333 -65.5151 main 134 134 P____________P AL061894 19.7425 -65.6574 HU 85 2 19.4148 -65.2304 TS 45 9 340
1894284N11303 1894 48 NA NA NOT_NAMED 1894-10-14 18:00:00 TS 20.0667 -65.6667 85 hurdat_atl main 190 190 O____________O hurdat_atl AL061894 20.2000 -65.8000 HU 85 2 19.8000 -65.4000 TS 45 9 341
1894284N11303 1894 48 NA NA NOT_NAMED 1894-10-14 21:00:00 TS 20.4383 -65.8051 main 223 223 P____________P AL061894 20.5575 -65.9077 HU 85 2 20.2000 -65.6001 TS 47 8 341
1894284N11303 1894 48 NA NA NOT_NAMED 1894-10-15 00:00:00 TS 20.8000 -65.9333 85 hurdat_atl main 268 268 O____________O hurdat_atl AL061894 20.9000 -66.0000 HU 85 2 20.6000 -65.8000 TS 50 8 342
1894284N11303 1894 48 NA NA NOT_NAMED 1894-10-15 03:00:00 TS 21.1950 -66.0618 main 313 313 P____________P AL061894 21.2925 -66.0926 HU 85 2 21.0000 -66.0001 TS 52 8 343
1894284N11303 1894 48 NA NA NOT_NAMED 1894-10-15 06:00:00 TS 21.6000 -66.2000 85 hurdat_atl main 357 357 O____________O hurdat_atl AL061894 21.7000 -66.2000 HU 85 2 21.4000 -66.2000 TS 55 9 340
1894284N11303 1894 48 NA NA NOT_NAMED 1894-10-15 09:00:00 TS 22.0125 -66.3840 main 402 402 P____________P AL061894 22.1150 -66.3648 HU 85 2 21.8075 -66.4224 TS 57 9 339
1894284N11303 1894 48 NA NA NOT_NAMED 1894-10-15 12:00:00 TS 22.4000 -66.5333 85 hurdat_atl main 447 447 O____________O hurdat_atl AL061894 22.5000 -66.5000 HU 85 2 22.2000 -66.6000 TS 60 7 346
1894284N11303 1894 48 NA NA NOT_NAMED 1894-10-15 15:00:00 TS 22.7266 -66.5702 main 472 472 P____________P AL061894 22.8150 -66.5152 HU 85 2 22.5500 -66.6802 TS 62 6 357
1894284N11303 1894 48 NA NA NOT_NAMED 1894-10-15 18:00:00 TS 23.0333 -66.5667 85 hurdat_atl main 499 499 O____________O hurdat_atl AL061894 23.1000 -66.5000 HU 85 2 22.9000 -66.7000 HU 65 6 356
1894284N11303 1894 48 NA NA NOT_NAMED 1894-10-15 21:00:00 TS 23.3642 -66.6025 main 536 536 P____________P AL061894 23.4000 -66.5499 HU 90 2 23.2925 -66.7076 HU 80 7 355
1894284N11303 1894 48 NA NA NOT_NAMED 1894-10-16 00:00:00 TS 23.7000 -66.6333 95 hurdat_atl main 565 565 O____________O hurdat_atl AL061894 23.7000 -66.6000 HU 95 2 23.7000 -66.7000 HU 95 7 356
1894284N11303 1894 48 NA NA NOT_NAMED 1894-10-16 03:00:00 TS 24.0283 -66.6334 main 594 594 P____________P AL061894 23.9925 -66.6001 HU 100 3 24.1000 -66.7000 HU 100 7 1
1894284N11303 1894 48 NA NA NOT_NAMED 1894-10-16 06:00:00 TS 24.3667 -66.6333 105 hurdat_atl main 634 634 O____________O hurdat_atl AL061894 24.3000 -66.6000 HU 105 3 24.5000 -66.7000 MH 105 7 357
1894284N11303 1894 48 NA NA NOT_NAMED 1894-10-16 09:00:00 TS 24.7083 -66.6666 main 660 660 P____________P AL061894 24.6125 -66.6499 HU 110 3 24.9000 -66.7000 MH 110 7 355
1894284N11303 1894 48 NA NA NOT_NAMED 1894-10-16 12:00:00 TS 25.1000 -66.7000 115 hurdat_atl main 701 701 O____________O hurdat_atl AL061894 25.0000 -66.7000 HU 115 4 25.3000 -66.7000 MH 115 9 357
1894284N11303 1894 48 NA NA NOT_NAMED 1894-10-16 15:00:00 TS 25.5675 -66.7124 main 751 751 P____________P AL061894 25.5050 -66.7150 HU 115 4 25.6925 -66.7074 MH 115 10 1
1894284N11303 1894 48 NA NA NOT_NAMED 1894-10-16 18:00:00 TS 26.1000 -66.7000 115 931 hurdat_atl main 801 801 O____________O hurdat_atl AL061894 26.1000 -66.7000 HU 115 931 4 26.1000 -66.7000 MH 115 931 11 2
1894284N11303 1894 48 NA NA NOT_NAMED 1894-10-16 21:00:00 TS 26.6958 -66.6675 main 862 862 P____________P AL061894 26.7725 -66.6724 HU 115 4 26.5425 -66.6575 MH 115 12 5
1894284N11303 1894 48 NA NA NOT_NAMED 1894-10-17 00:00:00 TS 27.2667 -66.6000 115 hurdat_atl main 927 927 O____________O hurdat_atl AL061894 27.4000 -66.6000 HU 115 4 27.0000 -66.6000 MH 115 10 7
1894284N11303 1894 48 NA NA NOT_NAMED 1894-10-17 03:00:00 TS 27.7082 -66.5205 main 972 972 P____________P AL061894 27.8374 -66.4872 HU 115 4 27.4499 -66.5870 MH 115 9 14
1894284N11303 1894 48 NA NA NOT_NAMED 1894-10-17 06:00:00 TS 28.1000 -66.3667 115 hurdat_atl main 1017 1017 O____________O hurdat_atl AL061894 28.2000 -66.3000 HU 115 4 27.9000 -66.5000 MH 115 9 23
1894284N11303 1894 48 NA NA NOT_NAMED 1894-10-17 09:00:00 TS 28.5090 -66.1263 main 1070 1070 P____________P AL061894 28.5848 -66.0520 HU 112 3 28.3573 -66.2748 MH 112 10 32
1894284N11303 1894 48 NA NA NOT_NAMED 1894-10-17 12:00:00 TS 28.9333 -65.7667 110 hurdat_atl main 1122 1122 O____________O hurdat_atl AL061894 29.0000 -65.7000 HU 110 3 28.8000 -65.9000 MH 110 11 39
1894284N11303 1894 48 NA NA NOT_NAMED 1894-10-17 15:00:00 TS 29.3873 -65.3095 main 1190 1190 P____________P AL061894 29.4771 -65.2668 HU 107 3 29.2076 -65.3948 MH 107 13 44
1894284N11303 1894 48 NA NA NOT_NAMED 1894-10-17 18:00:00 TS 29.8667 -64.7333 105 hurdat_atl main 1201 1201 O____________O hurdat_atl AL061894 30.0000 -64.7000 HU 105 3 29.6000 -64.8000 MH 105 14 48
1894284N11303 1894 48 NA NA NOT_NAMED 1894-10-17 21:00:00 TS 30.3566 -64.0704 main 1217 1217 P____________P AL061894 30.5352 -63.9872 HU 102 3 29.9994 -64.2367 MH 102 16 50
1894284N11303 1894 48 NA NA NOT_NAMED 1894-10-18 00:00:00 TS 30.8667 -63.3333 100 hurdat_atl main 1254 1254 O____________O hurdat_atl AL061894 31.1000 -63.2000 HU 100 3 30.4000 -63.6000 MH 100 17 51
1894284N11303 1894 48 NA NA NOT_NAMED 1894-10-18 03:00:00 TS 31.4048 -62.5689 main 1288 1288 P____________P AL061894 31.7072 -62.4422 HU 97 3 30.8002 -62.8223 MH 90 17 51
1894284N11303 1894 48 NA NA NOT_NAMED 1894-10-18 06:00:00 TS 31.9333 -61.8000 95 hurdat_atl main 1310 1286 O____________O hurdat_atl AL061894 32.3000 -61.7000 HU 95 2 31.2000 -62.0000 HU 80 16 52
1894284N11303 1894 48 NA NA NOT_NAMED 1894-10-18 09:00:00 TS 32.4093 -61.0747 main 1288 1262 P____________P AL061894 32.8299 -60.9621 HU 92 2 31.5682 -61.2999 HU 72 15 52
1894284N11303 1894 48 NA NA NOT_NAMED 1894-10-18 12:00:00 TS 32.8667 -60.3667 90 hurdat_atl main 1254 1231 O____________O hurdat_atl AL061894 33.3000 -60.3000 HU 90 2 32.0000 -60.5000 HU 65 15 52
1894284N11303 1894 48 NA NA NOT_NAMED 1894-10-18 15:00:00 TS 33.3407 -59.6421 main 1238 1209 P____________P AL061894 33.7220 -59.7615 HU 87 2 32.5781 -59.4033 HU 55 15 52
1894284N11303 1894 48 NA NA NOT_NAMED 1894-10-18 18:00:00 TS 33.8000 -58.9333 85 hurdat_atl main 1212 1193 O____________O hurdat_atl AL061894 34.1000 -59.3000 HU 85 2 33.2000 -58.2000 TS 45 15 53
1894284N11303 1894 48 NA NA NOT_NAMED 1894-10-18 21:00:00 TS 34.2289 -58.2386 main 1202 1186 P____________P AL061894 34.4649 -58.8272 HU 85 2 33.7570 -57.0613 TS 42 14 53
1894284N11303 1894 48 NA NA NOT_NAMED 1894-10-19 00:00:00 MX 34.6333 -57.6000 85 hurdat_atl main 1190 1177 O____________O hurdat_atl AL061894 34.8000 -58.4000 HU 85 2 34.3000 -56.0000 EX 40 13 51
1894284N11303 1894 48 NA NA NOT_NAMED 1894-10-19 03:00:00 MX 35.0211 -57.0433 main 1183 1149 P____________P AL061894 35.1073 -58.0345 HU 85 2 34.8488 -55.0609 EX 37 10 42
1894284N11303 1894 48 NA NA NOT_NAMED 1894-10-19 06:00:00 MX 35.4000 -56.7455 85 hurdat_atl main 1151 1122 O____________O hurdat_atl AL061894 35.4000 -57.7000 HU 85 2 35.4000 -54.2000 EX 35 8 29
1894284N11303 1894 48 NA NA NOT_NAMED 1894-10-19 09:00:00 MX 35.7442 -56.5502 main 1122 1093 P____________P AL061894 35.6924 -57.3496 HU 85 2 35.9514 -53.3526 EX 32 7 17
1894284N11303 1894 48 NA NA NOT_NAMED 1894-10-19 12:00:00 MX 36.0556 -56.5000 85 hurdat_atl main 1083 1059 O____________O hurdat_atl AL061894 36.0000 -57.0000 HU 85 2 36.5000 -52.5000 EX 30 6 354
1894284N11303 1894 48 NA NA NOT_NAMED 1894-10-19 15:00:00 TS 36.3500 -56.6351 main 1048 1027 P_____________ AL061894 36.3500 -56.6351 HU 82 1 EX 7 14
1894284N11303 1894 48 NA NA NOT_NAMED 1894-10-19 18:00:00 TS 36.7000 -56.3000 80 hurdat_atl main 1027 1002 O_____________ hurdat_atl AL061894 36.7000 -56.3000 HU 80 1 8 36
1894284N11303 1894 48 NA NA NOT_NAMED 1894-10-19 21:00:00 TS 37.0224 -56.0198 main 1006 983 P_____________ AL061894 37.0224 -56.0198 HU 80 1 7 34
1894284N11303 1894 48 NA NA NOT_NAMED 1894-10-20 00:00:00 TS 37.3000 -55.8000 80 hurdat_atl main 983 966 O_____________ hurdat_atl AL061894 37.3000 -55.8000 HU 80 1 6 32
1894284N11303 1894 48 NA NA NOT_NAMED 1894-10-20 03:00:00 TS 37.5224 -55.6347 main 970 954 P_____________ AL061894 37.5224 -55.6347 HU 77 1 5 31
1894284N11303 1894 48 NA NA NOT_NAMED 1894-10-20 06:00:00 TS 37.7000 -55.5000 75 hurdat_atl main 954 944 O_____________ hurdat_atl AL061894 37.7000 -55.5000 HU 75 1 4 34
1894284N11303 1894 48 NA NA NOT_NAMED 1894-10-20 09:00:00 TS 37.8499 -55.3573 main 948 937 P_____________ AL061894 37.8499 -55.3573 HU 72 1 4 38
1894284N11303 1894 48 NA NA NOT_NAMED 1894-10-20 12:00:00 TS 38.0000 -55.2000 70 hurdat_atl main 937 927 O_____________ hurdat_atl AL061894 38.0000 -55.2000 HU 70 1 4 39
1894284N11303 1894 48 NA NA NOT_NAMED 1894-10-20 15:00:00 TS 38.1876 -55.0103 main 927 917 P_____________ AL061894 38.1876 -55.0103 HU 70 1 5 38
1894284N11303 1894 48 NA NA NOT_NAMED 1894-10-20 18:00:00 TS 38.4000 -54.8000 70 hurdat_atl main 917 O_____________ hurdat_atl AL061894 38.4000 -54.8000 HU 70 1 5 38

About IBTrACS Database

This database is a web-friendly format of International Best Track Archive for Climate Stewardship (IBTrACS), a global best track data archive curated by NOAA dating back to 1842.

Updated: 2021-10-25